createdAt,value
2022-12-05T00:00:48.565Z,101160.81
2022-12-05T00:03:15.269Z,101154.22
2022-12-05T00:05:42.372Z,101142.44
2022-12-05T00:08:09.218Z,101147.09
2022-12-05T00:10:40.374Z,101145.59
2022-12-05T00:13:07.504Z,101131.06
2022-12-05T00:15:41.274Z,101136.25
2022-12-05T00:18:08.261Z,101139.09
2022-12-05T00:20:35.086Z,101137.56
2022-12-05T00:23:01.843Z,101133.13
2022-12-05T00:25:28.774Z,101129.84
2022-12-05T00:27:55.642Z,101125.53
2022-12-05T00:30:22.561Z,101129.41
2022-12-05T00:32:49.273Z,101129.03
2022-12-05T00:35:16.235Z,101132.97
2022-12-05T00:37:43.261Z,101134.31
2022-12-05T00:40:10.511Z,101122.50
2022-12-05T00:42:37.252Z,101122.78
2022-12-05T00:45:05.757Z,101120.59
2022-12-05T00:47:37.793Z,101127.09
2022-12-05T00:50:05.630Z,101120.75
2022-12-05T00:52:32.342Z,101128.03
2022-12-05T00:54:59.064Z,101116.16
2022-12-05T00:57:25.809Z,101117.31
2022-12-05T00:59:52.552Z,101119.28
2022-12-05T01:02:19.301Z,101102.47
2022-12-05T01:04:46.029Z,101111.28
2022-12-05T01:07:12.760Z,101110.31
2022-12-05T01:09:39.535Z,101107.63
2022-12-05T01:12:06.534Z,101108.41
2022-12-05T01:14:33.275Z,101092.50
2022-12-05T01:17:00.442Z,101107.72
2022-12-05T01:19:30.014Z,101108.56
2022-12-05T01:21:57.269Z,101109.22
2022-12-05T01:24:25.440Z,101103.03
2022-12-05T01:26:52.582Z,101099.38
2022-12-05T01:29:21.889Z,101103.19
2022-12-05T01:31:48.747Z,101097.75
2022-12-05T01:34:17.187Z,101097.59
2022-12-05T01:36:44.358Z,101088.47
2022-12-05T01:39:12.434Z,101093.50
2022-12-05T01:41:42.652Z,101094.94
2022-12-05T01:44:12.656Z,101088.84
2022-12-05T01:46:44.823Z,101090.44
2022-12-05T01:49:18.263Z,101100.34
2022-12-05T01:51:50.241Z,101093.50
2022-12-05T01:54:18.637Z,101089.94
2022-12-05T01:57:00.926Z,101098.59
2022-12-05T01:59:31.723Z,101095.03
2022-12-05T02:01:58.967Z,101090.59
2022-12-05T02:04:27.736Z,101090.81
2022-12-05T02:06:54.914Z,101084.16
2022-12-05T02:09:23.582Z,101090.59
2022-12-05T02:12:01.923Z,101079.31
2022-12-05T02:15:01.927Z,101090.50
2022-12-05T02:17:39.510Z,101086.72
2022-12-05T02:20:44.693Z,101082.88
2022-12-05T02:23:30.199Z,101082.16
2022-12-05T02:26:08.194Z,101089.84
2022-12-05T02:28:40.833Z,101073.94
2022-12-05T02:31:30.699Z,101091.03
2022-12-05T02:34:10.006Z,101083.81
2022-12-05T02:36:45.919Z,101089.34
2022-12-05T02:39:36.099Z,101099.34
2022-12-05T02:42:29.953Z,101091.03
2022-12-05T02:45:07.141Z,101082.28
2022-12-05T02:47:38.803Z,101077.72
2022-12-05T02:50:08.531Z,101089.41
2022-12-05T02:52:36.235Z,101078.28
2022-12-05T02:55:04.331Z,101083.63
2022-12-05T02:57:32.011Z,101089.31
2022-12-05T02:59:58.894Z,101084.78
2022-12-05T03:02:29.668Z,101080.41
2022-12-05T03:05:09.410Z,101089.50
2022-12-05T03:07:37.647Z,101070.84
2022-12-05T03:10:08.274Z,101086.31
2022-12-05T03:12:42.349Z,101091.69
2022-12-05T03:15:17.287Z,101076.78
2022-12-05T03:17:51.681Z,101076.91
2022-12-05T03:20:32.237Z,101085.56
2022-12-05T03:23:18.511Z,101077.47
2022-12-05T03:26:20.620Z,101066.84
2022-12-05T03:29:21.047Z,101074.09
2022-12-05T03:31:50.638Z,101070.66
2022-12-05T03:34:32.449Z,101067.06
2022-12-05T03:37:07.146Z,101081.28
2022-12-05T03:39:39.087Z,101074.88
2022-12-05T03:42:19.145Z,101078.38
2022-12-05T03:45:00.714Z,101078.22
2022-12-05T03:47:41.861Z,101079.31
2022-12-05T03:50:36.840Z,101072.69
2022-12-05T03:53:26.668Z,101078.38
2022-12-05T03:56:06.300Z,101081.22
2022-12-05T03:58:43.656Z,101083.47
2022-12-05T04:01:15.848Z,101078.63
2022-12-05T04:03:51.660Z,101082.97
2022-12-05T04:06:26.739Z,101089.81
2022-12-05T04:09:37.225Z,101090.38
2022-12-05T04:12:11.565Z,101081.78
2022-12-05T04:14:45.985Z,101089.97
2022-12-05T04:17:20.328Z,101073.63
2022-12-05T04:20:11.525Z,101080.84
2022-12-05T04:22:39.526Z,101090.09
2022-12-05T04:25:29.022Z,101085.44
2022-12-05T04:28:37.205Z,101089.16
2022-12-05T04:31:09.603Z,101082.59
2022-12-05T04:33:55.754Z,101083.91
2022-12-05T04:36:30.439Z,101084.56
2022-12-05T04:39:35.599Z,101067.81
2022-12-05T04:42:07.652Z,101077.00
2022-12-05T04:44:50.200Z,101071.75
2022-12-05T04:47:19.934Z,101073.25
2022-12-05T04:49:52.179Z,101072.25
2022-12-05T04:52:21.918Z,101073.69
2022-12-05T04:55:16.135Z,101080.97
2022-12-05T04:57:57.910Z,101084.41
2022-12-05T05:00:25.026Z,101095.66
2022-12-05T05:02:54.696Z,101088.25
2022-12-05T05:05:23.222Z,101088.25
2022-12-05T05:07:53.292Z,101096.34
2022-12-05T05:10:37.331Z,101094.44
2022-12-05T05:13:04.273Z,101092.78
2022-12-05T05:15:31.129Z,101097.38
2022-12-05T05:17:57.878Z,101098.66
2022-12-05T05:20:24.759Z,101108.63
2022-12-05T05:22:52.428Z,101092.31
2022-12-05T05:25:19.806Z,101097.94
2022-12-05T05:27:55.529Z,101094.69
2022-12-05T05:30:23.585Z,101095.41
2022-12-05T05:32:50.687Z,101090.00
2022-12-05T05:35:17.812Z,101090.38
2022-12-05T05:37:44.533Z,101086.47
2022-12-05T05:40:13.314Z,101083.03
2022-12-05T05:42:48.076Z,101100.06
2022-12-05T05:45:16.411Z,101091.03
2022-12-05T05:47:43.905Z,101093.66
2022-12-05T05:50:16.331Z,101084.47
2022-12-05T05:52:46.379Z,101080.94
2022-12-05T05:55:13.208Z,101087.47
2022-12-05T05:57:39.898Z,101076.25
2022-12-05T06:00:08.043Z,101087.56
2022-12-05T06:02:36.155Z,101095.50
2022-12-05T06:05:03.724Z,101075.75
2022-12-05T06:07:30.646Z,101076.63
2022-12-05T06:09:57.845Z,101070.16
2022-12-05T06:12:25.051Z,101064.53
2022-12-05T06:14:52.766Z,101061.19
2022-12-05T06:17:19.667Z,101065.31
2022-12-05T06:19:46.540Z,101061.97
2022-12-05T06:22:13.407Z,101054.84
2022-12-05T06:24:40.130Z,101058.28
2022-12-05T06:27:06.893Z,101045.09
2022-12-05T06:29:34.566Z,101055.06
2022-12-05T06:32:01.958Z,101049.59
2022-12-05T06:34:29.404Z,101048.72
2022-12-05T06:36:56.109Z,101039.06
2022-12-05T06:39:22.971Z,101059.78
2022-12-05T06:41:49.677Z,101046.19
2022-12-05T06:44:16.366Z,101040.56
2022-12-05T06:46:43.072Z,101037.81
2022-12-05T06:49:10.457Z,101040.06
2022-12-05T06:51:37.354Z,101041.59
2022-12-05T06:54:04.231Z,101042.31
2022-12-05T06:56:30.980Z,101037.88
2022-12-05T06:58:58.085Z,101025.28
2022-12-05T07:01:43.888Z,101036.06
2022-12-05T07:04:15.441Z,101035.91
2022-12-05T07:06:49.940Z,101038.44
2022-12-05T07:09:22.572Z,101027.50
2022-12-05T07:11:50.764Z,101027.72
2022-12-05T07:14:45.979Z,101029.16
2022-12-05T07:17:05.462Z,101020.22
2022-12-05T07:19:32.168Z,101017.09
2022-12-05T07:21:58.913Z,101020.03
2022-12-05T07:24:25.909Z,101028.94
2022-12-05T07:26:52.594Z,101017.69
2022-12-05T07:29:19.325Z,101023.59
2022-12-05T07:31:46.181Z,101012.19
2022-12-05T07:34:12.960Z,101005.06
2022-12-05T07:36:40.068Z,101007.84
2022-12-05T07:39:06.772Z,101009.28
2022-12-05T07:41:33.699Z,101010.13
2022-12-05T07:44:00.569Z,101007.59
2022-12-05T07:46:29.032Z,101004.09
2022-12-05T07:48:55.794Z,101016.72
2022-12-05T07:51:22.978Z,101011.66
2022-12-05T07:53:50.209Z,101008.97
2022-12-05T07:56:18.360Z,101011.19
2022-12-05T07:58:48.011Z,101009.44
2022-12-05T08:01:16.563Z,101009.13
2022-12-05T08:03:44.130Z,101009.94
2022-12-05T08:06:15.105Z,101003.75
2022-12-05T08:08:41.987Z,101006.44
2022-12-05T08:11:15.921Z,101009.75
2022-12-05T08:13:43.524Z,101004.84
2022-12-05T08:16:12.858Z,101001.59
2022-12-05T08:18:40.318Z,101005.88
2022-12-05T08:21:09.808Z,101000.56
2022-12-05T08:23:37.634Z,101005.00
2022-12-05T08:26:15.586Z,101010.56
2022-12-05T08:28:43.430Z,101006.59
2022-12-05T08:31:13.279Z,101000.25
2022-12-05T08:33:40.113Z,101007.47
2022-12-05T08:36:09.650Z,101002.63
2022-12-05T08:38:37.171Z,101009.06
2022-12-05T08:41:06.772Z,101002.47
2022-12-05T08:43:33.868Z,101003.28
2022-12-05T08:46:01.142Z,101004.38
2022-12-05T08:48:30.031Z,100999.22
2022-12-05T08:50:57.650Z,100998.19
2022-12-05T08:53:24.635Z,100993.03
2022-12-05T08:55:51.352Z,100997.25
2022-12-05T08:58:18.479Z,100992.97
2022-12-05T09:00:45.221Z,100997.34
2022-12-05T09:03:12.904Z,100997.41
2022-12-05T09:05:39.917Z,100987.09
2022-12-05T09:08:06.811Z,100994.78
2022-12-05T09:10:33.975Z,100998.66
2022-12-05T09:13:00.683Z,100991.69
2022-12-05T09:15:27.731Z,100991.69
2022-12-05T09:17:54.715Z,100998.59
2022-12-05T09:20:21.423Z,100992.59
2022-12-05T09:22:48.248Z,100988.69
2022-12-05T09:25:14.971Z,100989.63
2022-12-05T09:27:41.696Z,100991.16
2022-12-05T09:30:09.376Z,100993.59
2022-12-05T09:32:36.147Z,100992.78
2022-12-05T09:35:03.168Z,100994.97
2022-12-05T09:37:39.159Z,100992.88
2022-12-05T09:40:09.106Z,100997.56
2022-12-05T09:42:57.602Z,100994.69
2022-12-05T09:45:40.266Z,100992.63
2022-12-05T09:48:21.703Z,100994.78
2022-12-05T09:51:02.488Z,100994.69
2022-12-05T09:53:34.098Z,100992.63
2022-12-05T09:56:09.810Z,100994.06
2022-12-05T09:58:50.416Z,100995.34
2022-12-05T10:01:27.642Z,100992.78
2022-12-05T10:04:20.184Z,100983.38
2022-12-05T10:07:07.276Z,100993.69
2022-12-05T10:09:39.793Z,100997.34
2022-12-05T10:12:20.271Z,100998.59
2022-12-05T10:15:23.253Z,100997.16
2022-12-05T10:17:59.725Z,100996.28
2022-12-05T10:20:33.768Z,100998.81
2022-12-05T10:23:34.533Z,100993.28
2022-12-05T10:26:07.857Z,100987.81
2022-12-05T10:28:44.851Z,100982.97
2022-12-05T10:31:17.006Z,100983.28
2022-12-05T10:34:02.525Z,100989.31
2022-12-05T10:36:30.562Z,100982.50
2022-12-05T10:38:58.834Z,100975.97
2022-12-05T10:41:25.644Z,100975.81
2022-12-05T10:43:52.597Z,100972.03
2022-12-05T10:46:19.849Z,100982.66
2022-12-05T10:48:46.831Z,100984.22
2022-12-05T10:51:17.925Z,100976.47
2022-12-05T10:53:51.126Z,100963.38
2022-12-05T10:56:37.681Z,100968.38
2022-12-05T10:59:05.451Z,100969.66
2022-12-05T11:01:33.213Z,100973.94
2022-12-05T11:04:09.153Z,100958.88
2022-12-05T11:06:38.994Z,100965.94
2022-12-05T11:09:17.541Z,100956.00
2022-12-05T11:12:00.204Z,100949.03
2022-12-05T11:14:27.449Z,100948.88
2022-12-05T11:16:58.718Z,100945.78
2022-12-05T11:19:27.590Z,100959.34
2022-12-05T11:21:55.208Z,100960.28
2022-12-05T11:24:37.139Z,100953.31
2022-12-05T11:27:15.817Z,100946.34
2022-12-05T11:29:54.763Z,100956.63
2022-12-05T11:32:27.868Z,100936.19
2022-12-05T11:35:24.238Z,100938.56
2022-12-05T11:38:00.052Z,100938.97
2022-12-05T11:40:58.598Z,100942.69
2022-12-05T11:43:40.452Z,100945.94
2022-12-05T11:46:31.604Z,100949.81
2022-12-05T11:49:41.513Z,100946.81
2022-12-05T11:52:14.024Z,100946.97
2022-12-05T11:55:04.848Z,100944.38
2022-12-05T11:57:53.738Z,100927.13
2022-12-05T12:00:23.458Z,100944.75
2022-12-05T12:02:59.140Z,100936.41
2022-12-05T12:06:04.535Z,100940.31
2022-12-05T12:09:02.348Z,100942.75
2022-12-05T12:11:42.427Z,100928.41
2022-12-05T12:14:30.970Z,100938.41
2022-12-05T12:17:16.483Z,100923.50
2022-12-05T12:20:04.444Z,100933.59
2022-12-05T12:23:09.870Z,100928.75
2022-12-05T12:26:03.563Z,100922.41
2022-12-05T12:28:33.384Z,100919.53
2022-12-05T12:31:13.168Z,100913.41
2022-12-05T12:33:58.210Z,100924.31
2022-12-05T12:36:33.966Z,100920.88
2022-12-05T12:39:10.653Z,100916.75
2022-12-05T12:41:52.515Z,100916.53
2022-12-05T12:44:43.626Z,100919.38
2022-12-05T12:47:26.804Z,100918.50
2022-12-05T12:50:25.071Z,100915.91
2022-12-05T12:53:19.197Z,100912.09
2022-12-05T12:56:21.410Z,100910.84
2022-12-05T12:58:58.608Z,100907.88
2022-12-05T13:01:34.143Z,100903.91
2022-12-05T13:04:12.404Z,100896.56
2022-12-05T13:06:49.554Z,100906.44
2022-12-05T13:09:24.691Z,100904.63
2022-12-05T13:11:53.318Z,100897.81
2022-12-05T13:14:25.261Z,100914.16
2022-12-05T13:16:54.390Z,100906.88
2022-12-05T13:19:40.890Z,100897.88
2022-12-05T13:22:08.887Z,100897.09
2022-12-05T13:24:35.915Z,100900.06
2022-12-05T13:27:07.067Z,100900.44
2022-12-05T13:29:42.221Z,100891.88
2022-12-05T13:32:38.479Z,100890.84
2022-12-05T13:35:08.141Z,100893.44
2022-12-05T13:37:54.356Z,100888.66
2022-12-05T13:40:48.811Z,100884.69
2022-12-05T13:43:26.595Z,100894.03
2022-12-05T13:46:26.397Z,100887.53
2022-12-05T13:49:06.766Z,100887.06
2022-12-05T13:51:37.181Z,100886.97
2022-12-05T13:54:15.906Z,100886.00
2022-12-05T13:57:03.387Z,100876.91
2022-12-05T14:03:33.350Z,100879.44
2022-12-05T14:06:00.391Z,100881.19
2022-12-05T14:08:35.774Z,100880.06
2022-12-05T14:11:07.653Z,100882.94
2022-12-05T14:13:35.327Z,100881.47
2022-12-05T14:16:24.063Z,100881.97
2022-12-05T14:19:09.362Z,100882.19
2022-12-05T14:21:46.273Z,100878.09
2022-12-05T14:24:36.010Z,100880.78
2022-12-05T14:27:07.408Z,100883.63
2022-12-05T14:29:37.719Z,100871.44
2022-12-05T14:32:19.713Z,100878.72
2022-12-05T14:34:58.196Z,100877.28
2022-12-05T14:37:46.872Z,100879.25
2022-12-05T14:40:28.614Z,100864.63
2022-12-05T14:43:23.092Z,100867.31
2022-12-05T14:46:04.103Z,100873.25
2022-12-05T14:48:52.178Z,100865.41
2022-12-05T14:51:31.043Z,100869.63
2022-12-05T14:54:16.319Z,100869.69
2022-12-05T14:56:50.393Z,100880.41
2022-12-05T14:59:29.840Z,100875.72
2022-12-05T15:02:00.891Z,100868.47
2022-12-05T15:04:42.870Z,100873.31
2022-12-05T15:07:13.131Z,100864.88
2022-12-05T15:10:13.960Z,100863.25
2022-12-05T15:12:51.530Z,100861.84
2022-12-05T15:15:24.199Z,100864.78
2022-12-05T15:17:58.090Z,100869.00
2022-12-05T15:20:25.665Z,100865.72
2022-12-05T15:22:52.508Z,100874.59
2022-12-05T15:25:29.084Z,100866.84
2022-12-05T15:28:17.252Z,100869.38
2022-12-05T15:30:44.063Z,100868.59
2022-12-05T15:33:13.416Z,100877.78
2022-12-05T15:35:41.173Z,100865.94
2022-12-05T15:38:25.473Z,100871.28
2022-12-05T15:40:54.024Z,100869.38
2022-12-05T15:43:34.503Z,100858.44
2022-12-05T15:46:28.065Z,100864.22
2022-12-05T15:48:56.904Z,100863.50
2022-12-05T15:51:42.680Z,100863.72
2022-12-05T15:54:15.368Z,100860.50
2022-12-05T15:57:00.089Z,100858.38
2022-12-05T15:59:38.794Z,100856.69
2022-12-05T16:02:16.824Z,100864.44
2022-12-05T16:04:50.095Z,100853.78
2022-12-05T16:07:17.230Z,100861.59
2022-12-05T16:09:46.056Z,100858.59
2022-12-05T16:12:24.337Z,100870.22
2022-12-05T16:15:00.072Z,100867.31
2022-12-05T16:17:30.550Z,100866.03
2022-12-05T16:20:33.963Z,100857.50
2022-12-05T16:23:20.968Z,100857.81
2022-12-05T16:25:48.659Z,100855.91
2022-12-05T16:28:18.856Z,100857.41
2022-12-05T16:31:00.756Z,100851.63
2022-12-05T16:33:30.220Z,100858.53
2022-12-05T16:36:07.077Z,100854.88
2022-12-05T16:38:34.063Z,100854.94
2022-12-05T16:41:03.237Z,100858.59
2022-12-05T16:43:43.602Z,100861.19
2022-12-05T16:46:13.379Z,100859.47
2022-12-05T16:49:19.116Z,100862.03
2022-12-05T16:51:54.931Z,100856.28
2022-12-05T16:54:21.641Z,100854.81
2022-12-05T16:56:48.428Z,100855.97
2022-12-05T16:59:22.870Z,100852.97
2022-12-05T17:01:49.702Z,100852.38
2022-12-05T17:04:16.488Z,100848.78
2022-12-05T17:06:43.338Z,100859.28
2022-12-05T17:09:10.083Z,100864.53
2022-12-05T17:11:40.424Z,100857.41
2022-12-05T17:14:09.851Z,100850.44
2022-12-05T17:16:36.578Z,100852.25
2022-12-05T17:19:03.307Z,100855.44
2022-12-05T17:21:33.382Z,100854.53
2022-12-05T17:24:00.946Z,100849.63
2022-12-05T17:26:27.833Z,100845.50
2022-12-05T17:28:54.591Z,100847.19
2022-12-05T17:31:23.568Z,100845.44
2022-12-05T17:33:52.270Z,100847.75
2022-12-05T17:36:22.327Z,100843.94
2022-12-05T17:38:49.274Z,100844.00
2022-12-05T17:41:24.093Z,100838.78
2022-12-05T17:43:51.643Z,100833.06
2022-12-05T17:46:21.881Z,100838.06
2022-12-05T17:48:50.670Z,100836.59
2022-12-05T17:51:18.140Z,100839.97
2022-12-05T17:53:45.640Z,100829.91
2022-12-05T17:56:13.287Z,100829.97
2022-12-05T17:58:40.864Z,100842.47
2022-12-05T18:01:08.108Z,100836.88
2022-12-05T18:03:34.896Z,100841.84
2022-12-05T18:06:05.154Z,100842.34
2022-12-05T18:08:31.846Z,100831.19
2022-12-05T18:10:58.590Z,100843.31
2022-12-05T18:13:25.249Z,100841.47
2022-12-05T18:15:58.049Z,100841.63
2022-12-05T18:18:27.433Z,100847.66
2022-12-05T18:20:54.208Z,100844.25
2022-12-05T18:23:23.669Z,100844.09
2022-12-05T18:25:59.034Z,100849.38
2022-12-05T18:28:26.596Z,100843.91
2022-12-05T18:31:04.605Z,100835.88
2022-12-05T18:33:32.387Z,100837.66
2022-12-05T18:36:15.559Z,100840.75
2022-12-05T18:38:43.492Z,100836.22
2022-12-05T18:41:10.373Z,100844.25
2022-12-05T18:43:46.805Z,100840.03
2022-12-05T18:46:13.719Z,100838.94
2022-12-05T18:48:44.833Z,100848.31
2022-12-05T18:51:20.691Z,100842.84
2022-12-05T18:53:52.895Z,100847.09
2022-12-05T18:56:31.327Z,100839.81
2022-12-05T18:59:08.940Z,100847.81
2022-12-05T19:01:38.813Z,100849.06
2022-12-05T19:04:06.465Z,100849.06
2022-12-05T19:06:36.663Z,100851.06
2022-12-05T19:09:06.952Z,100844.16
2022-12-05T19:11:34.206Z,100840.94
2022-12-05T19:14:04.122Z,100841.78
2022-12-05T19:16:32.712Z,100847.28
2022-12-05T19:19:01.321Z,100838.16
2022-12-05T19:21:31.728Z,100840.03
2022-12-05T19:23:59.312Z,100845.06
2022-12-05T19:26:26.592Z,100846.53
2022-12-05T19:28:53.432Z,100856.38
2022-12-05T19:31:22.730Z,100849.88
2022-12-05T19:33:52.209Z,100838.72
2022-12-05T19:36:35.541Z,100845.06
2022-12-05T19:39:08.637Z,100853.75
2022-12-05T19:41:45.075Z,100842.09
2022-12-05T19:44:12.536Z,100851.06
2022-12-05T19:46:39.814Z,100848.84
2022-12-05T19:49:08.622Z,100848.84
2022-12-05T19:51:35.688Z,100852.03
2022-12-05T19:54:04.706Z,100857.41
2022-12-05T19:56:33.307Z,100847.59
2022-12-05T19:59:00.508Z,100853.28
2022-12-05T20:01:29.758Z,100847.19
2022-12-05T20:03:59.913Z,100850.34
2022-12-05T20:06:31.138Z,100847.97
2022-12-05T20:08:59.107Z,100851.69
2022-12-05T20:11:26.846Z,100845.28
2022-12-05T20:13:55.253Z,100847.81
2022-12-05T20:16:25.714Z,100855.44
2022-12-05T20:18:53.509Z,100858.53
2022-12-05T20:21:24.670Z,100854.16
2022-12-05T20:23:53.063Z,100854.22
2022-12-05T20:26:22.527Z,100864.47
2022-12-05T20:28:49.398Z,100851.63
2022-12-05T20:31:19.058Z,100860.97
2022-12-05T20:33:46.549Z,100850.69
2022-12-05T20:36:19.506Z,100854.09
2022-12-05T20:38:46.748Z,100842.91
2022-12-05T20:41:16.410Z,100853.91
2022-12-05T20:43:44.951Z,100846.66
2022-12-05T20:46:17.587Z,100848.69
2022-12-05T20:48:45.176Z,100836.31
2022-12-05T20:51:14.415Z,100840.88
2022-12-05T20:53:43.104Z,100837.03
2022-12-05T20:56:12.372Z,100837.34
2022-12-05T20:58:40.473Z,100850.00
2022-12-05T21:01:10.152Z,100836.31
2022-12-05T21:03:39.481Z,100841.81
2022-12-05T21:06:08.475Z,100841.06
2022-12-05T21:08:35.400Z,100841.88
2022-12-05T21:11:02.326Z,100836.78
2022-12-05T21:13:29.164Z,100834.66
2022-12-05T21:15:56.071Z,100830.13
2022-12-05T21:18:22.904Z,100835.22
2022-12-05T21:21:01.611Z,100831.19
2022-12-05T21:23:28.627Z,100832.28
2022-12-05T21:25:55.652Z,100827.72
2022-12-05T21:28:23.886Z,100815.81
2022-12-05T21:30:50.956Z,100821.53
2022-12-05T21:33:18.278Z,100818.72
2022-12-05T21:35:54.715Z,100821.88
2022-12-05T21:38:21.888Z,100820.31
2022-12-05T21:40:49.043Z,100817.53
2022-12-05T21:43:16.941Z,100811.78
2022-12-05T21:45:46.656Z,100814.59
2022-12-05T21:48:16.059Z,100815.50
2022-12-05T21:50:43.062Z,100813.94
2022-12-05T21:53:10.226Z,100816.91
2022-12-05T21:55:37.052Z,100811.09
2022-12-05T21:58:04.139Z,100806.84
2022-12-05T22:00:31.244Z,100809.22
2022-12-05T22:02:58.279Z,100804.63
2022-12-05T22:05:25.534Z,100805.44
2022-12-05T22:07:53.479Z,100806.59
2022-12-05T22:10:20.813Z,100802.03
2022-12-05T22:12:48.063Z,100805.66
2022-12-05T22:15:15.163Z,100806.66
2022-12-05T22:17:42.023Z,100799.69
2022-12-05T22:20:09.339Z,100802.38
2022-12-05T22:22:36.440Z,100814.69
2022-12-05T22:25:04.624Z,100806.19
2022-12-05T22:27:31.716Z,100803.34
2022-12-05T22:29:59.289Z,100808.19
2022-12-05T22:32:27.315Z,100804.47
2022-12-05T22:34:54.749Z,100816.03
2022-12-05T22:37:24.029Z,100801.94
2022-12-05T22:39:50.832Z,100801.94
2022-12-05T22:42:17.971Z,100810.66
2022-12-05T22:44:45.196Z,100815.69
2022-12-05T22:47:12.533Z,100812.22
2022-12-05T22:49:39.566Z,100810.16
2022-12-05T22:52:06.523Z,100805.97
2022-12-05T22:54:33.895Z,100796.94
2022-12-05T22:57:00.958Z,100807.16
2022-12-05T22:59:28.013Z,100798.06
2022-12-05T23:01:55.155Z,100795.91
2022-12-05T23:04:22.227Z,100791.56
2022-12-05T23:06:49.081Z,100799.84
2022-12-05T23:09:15.779Z,100791.16
2022-12-05T23:11:42.817Z,100784.19
2022-12-05T23:14:09.650Z,100780.47
2022-12-05T23:16:36.530Z,100791.47
2022-12-05T23:19:05.610Z,100788.94
2022-12-05T23:21:34.286Z,100787.66
2022-12-05T23:24:04.581Z,100797.06
2022-12-05T23:26:35.335Z,100789.34
2022-12-05T23:29:02.777Z,100787.50
2022-12-05T23:31:29.633Z,100788.63
2022-12-05T23:34:02.645Z,100781.47
2022-12-05T23:36:30.662Z,100784.81
2022-12-05T23:38:57.489Z,100779.09
2022-12-05T23:41:24.392Z,100777.16
2022-12-05T23:43:52.125Z,100780.84
2022-12-05T23:46:22.440Z,100786.25
2022-12-05T23:48:49.813Z,100776.25
2022-12-05T23:51:22.260Z,100778.88
2022-12-05T23:53:53.199Z,100783.31
2022-12-05T23:56:22.599Z,100771.81
2022-12-05T23:58:49.616Z,100771.03
